sensor_id;sensor_type;location;lat;lon;timestamp;P1;durP1;ratioP1;P2;durP2;ratioP2
54271;SDS011;40184;53.362;5.216;2023-03-23T00:02:11;17.15;;;3.58;;
54271;SDS011;40184;53.362;5.216;2023-03-23T00:04:37;16.13;;;5.13;;
54271;SDS011;40184;53.362;5.216;2023-03-23T00:07:03;12.30;;;3.90;;
54271;SDS011;40184;53.362;5.216;2023-03-23T00:09:28;22.17;;;7.18;;
54271;SDS011;40184;53.362;5.216;2023-03-23T00:11:55;14.52;;;4.35;;
54271;SDS011;40184;53.362;5.216;2023-03-23T00:14:22;18.23;;;6.25;;
54271;SDS011;40184;53.362;5.216;2023-03-23T00:16:49;14.38;;;5.93;;
54271;SDS011;40184;53.362;5.216;2023-03-23T00:19:16;17.98;;;5.80;;
54271;SDS011;40184;53.362;5.216;2023-03-23T00:21:44;20.02;;;6.45;;
54271;SDS011;40184;53.362;5.216;2023-03-23T00:24:11;19.48;;;8.98;;
54271;SDS011;40184;53.362;5.216;2023-03-23T00:26:42;16.52;;;6.57;;
54271;SDS011;40184;53.362;5.216;2023-03-23T00:29:14;19.65;;;5.80;;
54271;SDS011;40184;53.362;5.216;2023-03-23T00:31:44;18.65;;;6.65;;
54271;SDS011;40184;53.362;5.216;2023-03-23T00:34:14;20.08;;;6.22;;
54271;SDS011;40184;53.362;5.216;2023-03-23T00:36:51;21.52;;;7.05;;
54271;SDS011;40184;53.362;5.216;2023-03-23T00:39:21;17.90;;;6.10;;
54271;SDS011;40184;53.362;5.216;2023-03-23T00:41:49;25.40;;;6.65;;
54271;SDS011;40184;53.362;5.216;2023-03-23T00:44:15;20.88;;;6.93;;
54271;SDS011;40184;53.362;5.216;2023-03-23T00:46:47;22.65;;;6.80;;
54271;SDS011;40184;53.362;5.216;2023-03-23T00:49:15;23.33;;;6.40;;
54271;SDS011;40184;53.362;5.216;2023-03-23T00:51:42;20.00;;;5.75;;
54271;SDS011;40184;53.362;5.216;2023-03-23T00:54:08;22.05;;;6.03;;
54271;SDS011;40184;53.362;5.216;2023-03-23T00:56:35;24.27;;;7.32;;
54271;SDS011;40184;53.362;5.216;2023-03-23T00:59:01;25.00;;;6.30;;
54271;SDS011;40184;53.362;5.216;2023-03-23T01:01:27;22.20;;;8.07;;
54271;SDS011;40184;53.362;5.216;2023-03-23T01:03:53;27.65;;;6.82;;
54271;SDS011;40184;53.362;5.216;2023-03-23T01:06:25;27.52;;;6.88;;
54271;SDS011;40184;53.362;5.216;2023-03-23T01:08:56;26.13;;;6.72;;
54271;SDS011;40184;53.362;5.216;2023-03-23T01:11:22;25.95;;;6.47;;
54271;SDS011;40184;53.362;5.216;2023-03-23T01:13:49;21.95;;;6.50;;
54271;SDS011;40184;53.362;5.216;2023-03-23T01:16:15;28.73;;;6.85;;
54271;SDS011;40184;53.362;5.216;2023-03-23T01:18:41;26.35;;;7.90;;
54271;SDS011;40184;53.362;5.216;2023-03-23T01:21:08;21.52;;;6.80;;
54271;SDS011;40184;53.362;5.216;2023-03-23T01:23:38;25.08;;;7.05;;
54271;SDS011;40184;53.362;5.216;2023-03-23T01:26:15;21.52;;;6.47;;
54271;SDS011;40184;53.362;5.216;2023-03-23T01:28:43;27.40;;;5.93;;
54271;SDS011;40184;53.362;5.216;2023-03-23T01:31:13;20.55;;;5.88;;
54271;SDS011;40184;53.362;5.216;2023-03-23T01:33:43;19.95;;;6.00;;
54271;SDS011;40184;53.362;5.216;2023-03-23T01:36:11;24.30;;;6.13;;
54271;SDS011;40184;53.362;5.216;2023-03-23T01:38:42;21.55;;;5.20;;
54271;SDS011;40184;53.362;5.216;2023-03-23T01:41:10;20.13;;;5.22;;
54271;SDS011;40184;53.362;5.216;2023-03-23T01:43:52;24.52;;;5.72;;
54271;SDS011;40184;53.362;5.216;2023-03-23T01:46:26;26.38;;;5.10;;
54271;SDS011;40184;53.362;5.216;2023-03-23T01:48:53;21.77;;;4.88;;
54271;SDS011;40184;53.362;5.216;2023-03-23T01:51:20;25.58;;;6.00;;
54271;SDS011;40184;53.362;5.216;2023-03-23T01:53:57;19.58;;;4.65;;
54271;SDS011;40184;53.362;5.216;2023-03-23T01:56:29;21.17;;;5.30;;
54271;SDS011;40184;53.362;5.216;2023-03-23T01:59:06;14.02;;;4.53;;
54271;SDS011;40184;53.362;5.216;2023-03-23T02:01:34;14.63;;;4.05;;
54271;SDS011;40184;53.362;5.216;2023-03-23T02:04:03;16.88;;;5.22;;
54271;SDS011;40184;53.362;5.216;2023-03-23T02:06:29;22.38;;;4.75;;
54271;SDS011;40184;53.362;5.216;2023-03-23T02:08:55;22.88;;;4.93;;
54271;SDS011;40184;53.362;5.216;2023-03-23T02:11:21;25.02;;;5.35;;
54271;SDS011;40184;53.362;5.216;2023-03-23T02:13:47;20.35;;;5.07;;
54271;SDS011;40184;53.362;5.216;2023-03-23T02:18:58;28.77;;;6.28;;
54271;SDS011;40184;53.362;5.216;2023-03-23T02:35:47;23.00;;;5.07;;
54271;SDS011;40184;53.362;5.216;2023-03-23T02:38:30;20.15;;;4.38;;
54271;SDS011;40184;53.362;5.216;2023-03-23T02:41:01;26.10;;;5.97;;
54271;SDS011;40184;53.362;5.216;2023-03-23T02:43:30;26.42;;;5.20;;
54271;SDS011;40184;53.362;5.216;2023-03-23T02:46:00;21.02;;;4.65;;
54271;SDS011;40184;53.362;5.216;2023-03-23T02:48:31;20.52;;;4.05;;
54271;SDS011;40184;53.362;5.216;2023-03-23T02:50:57;16.17;;;4.07;;
54271;SDS011;40184;53.362;5.216;2023-03-23T02:53:25;19.27;;;4.57;;
54271;SDS011;40184;53.362;5.216;2023-03-23T02:55:54;17.30;;;3.70;;
54271;SDS011;40184;53.362;5.216;2023-03-23T02:58:20;19.77;;;4.40;;
54271;SDS011;40184;53.362;5.216;2023-03-23T03:00:48;27.23;;;4.82;;
54271;SDS011;40184;53.362;5.216;2023-03-23T03:03:16;23.65;;;4.93;;
54271;SDS011;40184;53.362;5.216;2023-03-23T03:05:55;29.02;;;6.00;;
54271;SDS011;40184;53.362;5.216;2023-03-23T03:08:36;25.17;;;5.18;;
54271;SDS011;40184;53.362;5.216;2023-03-23T03:11:16;30.42;;;5.90;;
54271;SDS011;40184;53.362;5.216;2023-03-23T03:13:54;31.52;;;5.55;;
54271;SDS011;40184;53.362;5.216;2023-03-23T03:21:45;25.98;;;5.28;;
54271;SDS011;40184;53.362;5.216;2023-03-23T03:24:14;19.08;;;4.90;;
54271;SDS011;40184;53.362;5.216;2023-03-23T03:26:43;36.00;;;6.40;;
54271;SDS011;40184;53.362;5.216;2023-03-23T03:29:13;25.55;;;6.03;;
54271;SDS011;40184;53.362;5.216;2023-03-23T03:31:42;30.73;;;5.63;;
54271;SDS011;40184;53.362;5.216;2023-03-23T03:34:10;27.27;;;5.32;;
54271;SDS011;40184;53.362;5.216;2023-03-23T03:36:42;33.88;;;5.90;;
54271;SDS011;40184;53.362;5.216;2023-03-23T03:39:12;33.38;;;6.30;;
54271;SDS011;40184;53.362;5.216;2023-03-23T03:41:41;34.47;;;5.55;;
54271;SDS011;40184;53.362;5.216;2023-03-23T03:44:07;37.85;;;6.80;;
54271;SDS011;40184;53.362;5.216;2023-03-23T03:46:34;38.30;;;7.25;;
54271;SDS011;40184;53.362;5.216;2023-03-23T03:49:01;40.60;;;6.07;;
54271;SDS011;40184;53.362;5.216;2023-03-23T03:51:29;31.75;;;7.45;;
54271;SDS011;40184;53.362;5.216;2023-03-23T03:53:55;33.03;;;7.30;;
54271;SDS011;40184;53.362;5.216;2023-03-23T03:56:22;36.67;;;7.03;;
54271;SDS011;40184;53.362;5.216;2023-03-23T03:58:48;34.78;;;6.18;;
54271;SDS011;40184;53.362;5.216;2023-03-23T04:01:15;37.17;;;7.90;;
54271;SDS011;40184;53.362;5.216;2023-03-23T04:03:43;37.58;;;6.85;;
54271;SDS011;40184;53.362;5.216;2023-03-23T04:06:11;37.25;;;8.25;;
54271;SDS011;40184;53.362;5.216;2023-03-23T04:08:37;49.70;;;9.48;;
54271;SDS011;40184;53.362;5.216;2023-03-23T04:11:06;34.72;;;6.53;;
54271;SDS011;40184;53.362;5.216;2023-03-23T04:13:36;35.00;;;7.38;;
54271;SDS011;40184;53.362;5.216;2023-03-23T04:16:01;40.47;;;8.90;;
54271;SDS011;40184;53.362;5.216;2023-03-23T04:18:28;39.15;;;7.53;;
54271;SDS011;40184;53.362;5.216;2023-03-23T04:20:57;45.47;;;9.63;;
54271;SDS011;40184;53.362;5.216;2023-03-23T04:23:24;41.40;;;8.20;;
54271;SDS011;40184;53.362;5.216;2023-03-23T04:25:52;41.40;;;8.90;;
54271;SDS011;40184;53.362;5.216;2023-03-23T04:28:22;40.03;;;7.60;;
54271;SDS011;40184;53.362;5.216;2023-03-23T04:30:51;51.92;;;9.50;;
54271;SDS011;40184;53.362;5.216;2023-03-23T04:33:23;49.60;;;10.30;;
54271;SDS011;40184;53.362;5.216;2023-03-23T04:35:54;47.78;;;9.98;;
54271;SDS011;40184;53.362;5.216;2023-03-23T04:38:21;52.58;;;9.15;;
54271;SDS011;40184;53.362;5.216;2023-03-23T04:40:50;54.53;;;10.18;;
54271;SDS011;40184;53.362;5.216;2023-03-23T04:43:17;51.47;;;9.85;;
54271;SDS011;40184;53.362;5.216;2023-03-23T04:45:46;56.10;;;10.63;;
54271;SDS011;40184;53.362;5.216;2023-03-23T04:48:16;40.05;;;8.40;;
54271;SDS011;40184;53.362;5.216;2023-03-23T04:50:42;47.28;;;9.90;;
54271;SDS011;40184;53.362;5.216;2023-03-23T04:53:08;42.72;;;8.10;;
54271;SDS011;40184;53.362;5.216;2023-03-23T04:55:35;45.13;;;9.70;;
54271;SDS011;40184;53.362;5.216;2023-03-23T04:58:05;50.08;;;9.27;;
54271;SDS011;40184;53.362;5.216;2023-03-23T05:00:32;41.17;;;9.80;;
54271;SDS011;40184;53.362;5.216;2023-03-23T05:02:59;45.78;;;9.13;;
54271;SDS011;40184;53.362;5.216;2023-03-23T05:05:26;48.55;;;11.05;;
54271;SDS011;40184;53.362;5.216;2023-03-23T05:07:54;42.65;;;8.20;;
54271;SDS011;40184;53.362;5.216;2023-03-23T05:10:20;57.88;;;13.27;;
54271;SDS011;40184;53.362;5.216;2023-03-23T05:12:45;45.28;;;9.57;;
54271;SDS011;40184;53.362;5.216;2023-03-23T05:15:12;51.40;;;11.07;;
54271;SDS011;40184;53.362;5.216;2023-03-23T05:17:39;52.88;;;10.60;;
54271;SDS011;40184;53.362;5.216;2023-03-23T05:20:14;52.67;;;9.73;;
54271;SDS011;40184;53.362;5.216;2023-03-23T05:22:44;56.42;;;12.23;;
54271;SDS011;40184;53.362;5.216;2023-03-23T05:25:13;46.90;;;10.95;;
54271;SDS011;40184;53.362;5.216;2023-03-23T05:27:38;56.70;;;11.38;;
54271;SDS011;40184;53.362;5.216;2023-03-23T05:30:07;48.30;;;10.73;;
54271;SDS011;40184;53.362;5.216;2023-03-23T05:32:33;53.08;;;8.57;;
54271;SDS011;40184;53.362;5.216;2023-03-23T05:35:00;41.70;;;9.35;;
54271;SDS011;40184;53.362;5.216;2023-03-23T05:37:26;36.13;;;8.75;;
54271;SDS011;40184;53.362;5.216;2023-03-23T05:39:58;41.33;;;8.07;;
54271;SDS011;40184;53.362;5.216;2023-03-23T05:42:26;38.72;;;8.30;;
54271;SDS011;40184;53.362;5.216;2023-03-23T05:44:52;37.47;;;7.60;;
54271;SDS011;40184;53.362;5.216;2023-03-23T05:47:18;22.23;;;5.70;;
54271;SDS011;40184;53.362;5.216;2023-03-23T05:49:43;21.77;;;5.22;;
54271;SDS011;40184;53.362;5.216;2023-03-23T05:52:09;29.88;;;5.75;;
54271;SDS011;40184;53.362;5.216;2023-03-23T05:54:35;22.13;;;5.68;;
54271;SDS011;40184;53.362;5.216;2023-03-23T05:57:01;30.50;;;6.70;;
54271;SDS011;40184;53.362;5.216;2023-03-23T05:59:27;26.63;;;4.72;;
54271;SDS011;40184;53.362;5.216;2023-03-23T06:01:53;30.85;;;5.63;;
54271;SDS011;40184;53.362;5.216;2023-03-23T06:04:19;25.67;;;5.40;;
54271;SDS011;40184;53.362;5.216;2023-03-23T06:06:46;29.55;;;5.93;;
54271;SDS011;40184;53.362;5.216;2023-03-23T06:09:11;30.42;;;6.35;;
54271;SDS011;40184;53.362;5.216;2023-03-23T06:11:37;27.30;;;5.80;;
54271;SDS011;40184;53.362;5.216;2023-03-23T06:14:03;28.65;;;5.00;;
54271;SDS011;40184;53.362;5.216;2023-03-23T06:16:29;31.65;;;6.10;;
54271;SDS011;40184;53.362;5.216;2023-03-23T06:18:54;34.17;;;6.88;;
54271;SDS011;40184;53.362;5.216;2023-03-23T06:21:22;37.35;;;5.40;;
54271;SDS011;40184;53.362;5.216;2023-03-23T06:23:48;27.88;;;5.72;;
54271;SDS011;40184;53.362;5.216;2023-03-23T06:26:14;25.25;;;5.28;;
54271;SDS011;40184;53.362;5.216;2023-03-23T06:28:42;31.20;;;5.88;;
54271;SDS011;40184;53.362;5.216;2023-03-23T06:31:08;28.45;;;5.80;;
54271;SDS011;40184;53.362;5.216;2023-03-23T06:33:34;37.10;;;7.25;;
54271;SDS011;40184;53.362;5.216;2023-03-23T06:36:01;34.22;;;5.80;;
54271;SDS011;40184;53.362;5.216;2023-03-23T06:38:28;28.77;;;7.05;;
54271;SDS011;40184;53.362;5.216;2023-03-23T06:40:54;31.55;;;7.40;;
54271;SDS011;40184;53.362;5.216;2023-03-23T06:43:22;41.83;;;7.47;;
54271;SDS011;40184;53.362;5.216;2023-03-23T06:45:51;40.78;;;9.00;;
54271;SDS011;40184;53.362;5.216;2023-03-23T06:48:17;44.95;;;7.80;;
54271;SDS011;40184;53.362;5.216;2023-03-23T06:50:43;41.85;;;8.52;;
54271;SDS011;40184;53.362;5.216;2023-03-23T06:53:10;41.47;;;9.05;;
54271;SDS011;40184;53.362;5.216;2023-03-23T06:55:37;46.67;;;8.95;;
54271;SDS011;40184;53.362;5.216;2023-03-23T06:58:03;45.97;;;8.18;;
54271;SDS011;40184;53.362;5.216;2023-03-23T07:00:30;37.17;;;8.20;;
54271;SDS011;40184;53.362;5.216;2023-03-23T07:02:56;51.78;;;8.68;;
54271;SDS011;40184;53.362;5.216;2023-03-23T07:05:23;31.55;;;8.23;;
54271;SDS011;40184;53.362;5.216;2023-03-23T07:07:49;51.80;;;9.88;;
54271;SDS011;40184;53.362;5.216;2023-03-23T07:10:15;44.58;;;9.40;;
54271;SDS011;40184;53.362;5.216;2023-03-23T07:12:41;53.50;;;10.30;;
54271;SDS011;40184;53.362;5.216;2023-03-23T07:15:07;44.63;;;9.55;;
54271;SDS011;40184;53.362;5.216;2023-03-23T07:17:36;44.58;;;8.40;;
54271;SDS011;40184;53.362;5.216;2023-03-23T07:20:02;46.78;;;8.77;;
54271;SDS011;40184;53.362;5.216;2023-03-23T07:22:29;44.65;;;8.65;;
54271;SDS011;40184;53.362;5.216;2023-03-23T07:24:55;45.50;;;9.65;;
54271;SDS011;40184;53.362;5.216;2023-03-23T07:27:21;46.83;;;9.95;;
54271;SDS011;40184;53.362;5.216;2023-03-23T07:29:47;42.72;;;8.88;;
54271;SDS011;40184;53.362;5.216;2023-03-23T07:32:13;47.80;;;9.45;;
54271;SDS011;40184;53.362;5.216;2023-03-23T07:34:39;47.45;;;10.13;;
54271;SDS011;40184;53.362;5.216;2023-03-23T07:37:05;54.53;;;10.63;;
54271;SDS011;40184;53.362;5.216;2023-03-23T07:39:31;47.63;;;10.98;;
54271;SDS011;40184;53.362;5.216;2023-03-23T07:41:58;58.30;;;12.27;;
54271;SDS011;40184;53.362;5.216;2023-03-23T07:44:23;65.55;;;13.18;;
54271;SDS011;40184;53.362;5.216;2023-03-23T07:46:50;67.13;;;12.60;;
54271;SDS011;40184;53.362;5.216;2023-03-23T07:49:16;53.55;;;10.82;;
54271;SDS011;40184;53.362;5.216;2023-03-23T07:51:42;63.00;;;13.07;;
54271;SDS011;40184;53.362;5.216;2023-03-23T07:54:08;60.85;;;11.43;;
54271;SDS011;40184;53.362;5.216;2023-03-23T07:56:34;68.72;;;12.07;;
54271;SDS011;40184;53.362;5.216;2023-03-23T07:59:01;59.45;;;11.70;;
54271;SDS011;40184;53.362;5.216;2023-03-23T08:01:27;65.47;;;12.68;;
54271;SDS011;40184;53.362;5.216;2023-03-23T08:03:54;64.85;;;12.10;;
54271;SDS011;40184;53.362;5.216;2023-03-23T08:06:22;63.80;;;11.93;;
54271;SDS011;40184;53.362;5.216;2023-03-23T08:08:51;53.35;;;12.45;;
54271;SDS011;40184;53.362;5.216;2023-03-23T08:11:18;57.92;;;10.63;;
54271;SDS011;40184;53.362;5.216;2023-03-23T08:13:44;59.22;;;10.40;;
54271;SDS011;40184;53.362;5.216;2023-03-23T08:16:11;61.72;;;12.18;;
54271;SDS011;40184;53.362;5.216;2023-03-23T08:18:36;58.65;;;12.30;;
54271;SDS011;40184;53.362;5.216;2023-03-23T08:21:04;71.80;;;12.50;;
54271;SDS011;40184;53.362;5.216;2023-03-23T08:23:31;62.40;;;12.50;;
54271;SDS011;40184;53.362;5.216;2023-03-23T08:25:58;73.75;;;12.80;;
54271;SDS011;40184;53.362;5.216;2023-03-23T08:28:24;56.33;;;11.60;;
54271;SDS011;40184;53.362;5.216;2023-03-23T08:30:49;41.95;;;9.65;;
54271;SDS011;40184;53.362;5.216;2023-03-23T08:33:15;62.83;;;11.82;;
54271;SDS011;40184;53.362;5.216;2023-03-23T08:35:42;69.40;;;12.52;;
54271;SDS011;40184;53.362;5.216;2023-03-23T08:38:09;46.50;;;9.82;;
54271;SDS011;40184;53.362;5.216;2023-03-23T08:40:36;42.35;;;9.23;;
54271;SDS011;40184;53.362;5.216;2023-03-23T08:43:03;49.90;;;9.98;;
54271;SDS011;40184;53.362;5.216;2023-03-23T08:45:29;53.17;;;9.95;;
54271;SDS011;40184;53.362;5.216;2023-03-23T08:47:55;50.55;;;9.73;;
54271;SDS011;40184;53.362;5.216;2023-03-23T08:50:24;54.03;;;10.95;;
54271;SDS011;40184;53.362;5.216;2023-03-23T08:52:52;46.60;;;10.95;;
54271;SDS011;40184;53.362;5.216;2023-03-23T08:55:19;49.60;;;10.63;;
54271;SDS011;40184;53.362;5.216;2023-03-23T08:57:45;55.25;;;10.85;;
54271;SDS011;40184;53.362;5.216;2023-03-23T09:00:13;51.88;;;10.05;;
54271;SDS011;40184;53.362;5.216;2023-03-23T09:02:46;41.90;;;9.70;;
54271;SDS011;40184;53.362;5.216;2023-03-23T09:05:14;56.45;;;10.80;;
54271;SDS011;40184;53.362;5.216;2023-03-23T09:07:42;54.45;;;11.85;;
54271;SDS011;40184;53.362;5.216;2023-03-23T09:10:11;50.42;;;10.90;;
54271;SDS011;40184;53.362;5.216;2023-03-23T09:12:38;51.92;;;11.02;;
54271;SDS011;40184;53.362;5.216;2023-03-23T09:15:05;44.38;;;10.70;;
54271;SDS011;40184;53.362;5.216;2023-03-23T09:17:33;62.42;;;12.07;;
54271;SDS011;40184;53.362;5.216;2023-03-23T09:20:00;45.50;;;10.68;;
54271;SDS011;40184;53.362;5.216;2023-03-23T09:22:25;52.70;;;11.20;;
54271;SDS011;40184;53.362;5.216;2023-03-23T09:24:52;61.60;;;12.05;;
54271;SDS011;40184;53.362;5.216;2023-03-23T09:27:18;53.88;;;13.02;;
54271;SDS011;40184;53.362;5.216;2023-03-23T09:29:44;55.75;;;12.77;;
54271;SDS011;40184;53.362;5.216;2023-03-23T09:32:10;63.00;;;12.95;;
54271;SDS011;40184;53.362;5.216;2023-03-23T09:34:38;42.97;;;10.85;;
54271;SDS011;40184;53.362;5.216;2023-03-23T09:37:04;52.28;;;10.23;;
54271;SDS011;40184;53.362;5.216;2023-03-23T09:39:30;54.03;;;11.32;;
54271;SDS011;40184;53.362;5.216;2023-03-23T09:44:57;70.20;;;14.98;;
54271;SDS011;40184;53.362;5.216;2023-03-23T09:50:31;56.10;;;10.82;;
54271;SDS011;40184;53.362;5.216;2023-03-23T09:53:09;42.40;;;10.50;;
54271;SDS011;40184;53.362;5.216;2023-03-23T09:55:47;48.38;;;9.45;;
54271;SDS011;40184;53.362;5.216;2023-03-23T09:58:17;52.83;;;10.73;;
54271;SDS011;40184;53.362;5.216;2023-03-23T10:00:55;48.88;;;10.65;;
54271;SDS011;40184;53.362;5.216;2023-03-23T10:03:25;53.70;;;10.35;;
54271;SDS011;40184;53.362;5.216;2023-03-23T10:05:53;53.58;;;12.38;;
54271;SDS011;40184;53.362;5.216;2023-03-23T10:08:26;49.63;;;10.77;;
54271;SDS011;40184;53.362;5.216;2023-03-23T10:16:03;42.53;;;10.05;;
54271;SDS011;40184;53.362;5.216;2023-03-23T10:21:36;45.75;;;11.13;;
54271;SDS011;40184;53.362;5.216;2023-03-23T10:24:09;55.10;;;12.50;;
54271;SDS011;40184;53.362;5.216;2023-03-23T10:26:55;51.30;;;11.45;;
54271;SDS011;40184;53.362;5.216;2023-03-23T10:29:57;55.78;;;10.25;;
54271;SDS011;40184;53.362;5.216;2023-03-23T10:33:02;46.03;;;11.45;;
54271;SDS011;40184;53.362;5.216;2023-03-23T10:35:35;56.13;;;12.73;;
54271;SDS011;40184;53.362;5.216;2023-03-23T10:38:17;61.60;;;11.53;;
54271;SDS011;40184;53.362;5.216;2023-03-23T10:40:49;52.78;;;11.57;;
54271;SDS011;40184;53.362;5.216;2023-03-23T10:43:19;51.78;;;9.82;;
54271;SDS011;40184;53.362;5.216;2023-03-23T10:45:45;50.67;;;11.38;;
54271;SDS011;40184;53.362;5.216;2023-03-23T10:48:22;42.35;;;10.98;;
54271;SDS011;40184;53.362;5.216;2023-03-23T10:50:54;63.10;;;10.57;;
54271;SDS011;40184;53.362;5.216;2023-03-23T10:53:23;50.33;;;10.32;;
54271;SDS011;40184;53.362;5.216;2023-03-23T10:56:02;59.40;;;11.63;;
54271;SDS011;40184;53.362;5.216;2023-03-23T10:58:30;50.97;;;10.13;;
54271;SDS011;40184;53.362;5.216;2023-03-23T11:00:59;50.67;;;10.93;;
54271;SDS011;40184;53.362;5.216;2023-03-23T11:03:33;48.40;;;10.85;;
54271;SDS011;40184;53.362;5.216;2023-03-23T11:06:01;51.72;;;11.45;;
54271;SDS011;40184;53.362;5.216;2023-03-23T11:08:30;48.80;;;10.18;;
54271;SDS011;40184;53.362;5.216;2023-03-23T11:11:21;46.45;;;9.90;;
54271;SDS011;40184;53.362;5.216;2023-03-23T11:13:56;57.25;;;9.48;;
54271;SDS011;40184;53.362;5.216;2023-03-23T11:16:28;48.03;;;9.82;;
54271;SDS011;40184;53.362;5.216;2023-03-23T11:18:59;47.65;;;10.95;;
54271;SDS011;40184;53.362;5.216;2023-03-23T11:21:37;39.47;;;9.35;;
54271;SDS011;40184;53.362;5.216;2023-03-23T11:24:04;42.33;;;9.20;;
54271;SDS011;40184;53.362;5.216;2023-03-23T11:26:31;50.40;;;10.00;;
54271;SDS011;40184;53.362;5.216;2023-03-23T11:29:04;51.70;;;11.13;;
54271;SDS011;40184;53.362;5.216;2023-03-23T11:31:42;40.03;;;9.55;;
54271;SDS011;40184;53.362;5.216;2023-03-23T11:34:32;63.53;;;10.93;;
54271;SDS011;40184;53.362;5.216;2023-03-23T11:40:03;42.15;;;9.30;;
54271;SDS011;40184;53.362;5.216;2023-03-23T11:45:15;49.80;;;10.68;;
54271;SDS011;40184;53.362;5.216;2023-03-23T11:56:34;39.50;;;9.20;;
54271;SDS011;40184;53.362;5.216;2023-03-23T11:59:01;38.97;;;8.23;;
54271;SDS011;40184;53.362;5.216;2023-03-23T12:18:40;56.15;;;10.13;;
54271;SDS011;40184;53.362;5.216;2023-03-23T12:21:04;48.00;;;9.30;;
54271;SDS011;40184;53.362;5.216;2023-03-23T12:23:48;47.33;;;9.82;;
54271;SDS011;40184;53.362;5.216;2023-03-23T12:26:30;49.92;;;10.88;;
54271;SDS011;40184;53.362;5.216;2023-03-23T12:29:29;43.83;;;9.10;;
54271;SDS011;40184;53.362;5.216;2023-03-23T12:34:58;52.13;;;9.00;;
54271;SDS011;40184;53.362;5.216;2023-03-23T12:37:56;44.80;;;9.65;;
54271;SDS011;40184;53.362;5.216;2023-03-23T12:43:14;36.53;;;8.55;;
54271;SDS011;40184;53.362;5.216;2023-03-23T12:48:59;43.60;;;9.25;;
54271;SDS011;40184;53.362;5.216;2023-03-23T12:54:59;33.17;;;8.07;;
54271;SDS011;40184;53.362;5.216;2023-03-23T13:00:22;37.80;;;8.07;;
54271;SDS011;40184;53.362;5.216;2023-03-23T13:08:28;39.65;;;8.18;;
54271;SDS011;40184;53.362;5.216;2023-03-23T13:11:00;37.75;;;10.45;;
54271;SDS011;40184;53.362;5.216;2023-03-23T13:21:49;45.33;;;7.88;;
54271;SDS011;40184;53.362;5.216;2023-03-23T13:24:34;31.88;;;7.53;;
54271;SDS011;40184;53.362;5.216;2023-03-23T13:27:04;57.35;;;10.15;;
54271;SDS011;40184;53.362;5.216;2023-03-23T13:29:33;42.30;;;9.02;;
54271;SDS011;40184;53.362;5.216;2023-03-23T13:32:06;39.72;;;8.63;;
54271;SDS011;40184;53.362;5.216;2023-03-23T13:34:36;37.08;;;8.60;;
54271;SDS011;40184;53.362;5.216;2023-03-23T13:37:05;39.40;;;9.70;;
54271;SDS011;40184;53.362;5.216;2023-03-23T13:39:48;47.45;;;9.90;;
54271;SDS011;40184;53.362;5.216;2023-03-23T13:42:30;43.03;;;8.07;;
54271;SDS011;40184;53.362;5.216;2023-03-23T13:50:31;32.08;;;8.98;;
54271;SDS011;40184;53.362;5.216;2023-03-23T13:53:14;38.60;;;8.55;;
54271;SDS011;40184;53.362;5.216;2023-03-23T13:55:51;37.88;;;8.00;;
54271;SDS011;40184;53.362;5.216;2023-03-23T13:58:28;41.57;;;8.43;;
54271;SDS011;40184;53.362;5.216;2023-03-23T14:01:13;42.20;;;7.72;;
54271;SDS011;40184;53.362;5.216;2023-03-23T14:03:42;45.15;;;8.68;;
54271;SDS011;40184;53.362;5.216;2023-03-23T14:06:15;35.03;;;7.57;;
54271;SDS011;40184;53.362;5.216;2023-03-23T14:08:44;32.65;;;8.18;;
54271;SDS011;40184;53.362;5.216;2023-03-23T14:14:00;42.38;;;8.45;;
54271;SDS011;40184;53.362;5.216;2023-03-23T14:19:03;33.17;;;8.25;;
54271;SDS011;40184;53.362;5.216;2023-03-23T14:21:41;61.10;;;8.70;;
54271;SDS011;40184;53.362;5.216;2023-03-23T14:24:32;41.08;;;9.00;;
54271;SDS011;40184;53.362;5.216;2023-03-23T14:27:20;54.80;;;8.15;;
54271;SDS011;40184;53.362;5.216;2023-03-23T14:29:57;43.90;;;8.15;;
54271;SDS011;40184;53.362;5.216;2023-03-23T14:32:24;31.48;;;8.23;;
54271;SDS011;40184;53.362;5.216;2023-03-23T14:34:51;32.90;;;8.35;;
54271;SDS011;40184;53.362;5.216;2023-03-23T14:37:18;32.97;;;7.78;;
54271;SDS011;40184;53.362;5.216;2023-03-23T14:39:46;32.10;;;6.78;;
54271;SDS011;40184;53.362;5.216;2023-03-23T14:42:15;46.45;;;8.45;;
54271;SDS011;40184;53.362;5.216;2023-03-23T14:44:52;42.72;;;7.78;;
54271;SDS011;40184;53.362;5.216;2023-03-23T14:47:20;36.17;;;7.95;;
54271;SDS011;40184;53.362;5.216;2023-03-23T14:49:55;41.40;;;8.40;;
54271;SDS011;40184;53.362;5.216;2023-03-23T14:52:24;29.17;;;6.93;;
54271;SDS011;40184;53.362;5.216;2023-03-23T14:54:51;33.30;;;7.15;;
54271;SDS011;40184;53.362;5.216;2023-03-23T14:57:18;36.83;;;6.80;;
54271;SDS011;40184;53.362;5.216;2023-03-23T14:59:51;29.98;;;7.00;;
54271;SDS011;40184;53.362;5.216;2023-03-23T15:02:20;37.88;;;8.18;;
54271;SDS011;40184;53.362;5.216;2023-03-23T15:04:48;39.47;;;7.53;;
54271;SDS011;40184;53.362;5.216;2023-03-23T15:07:17;29.63;;;6.30;;
54271;SDS011;40184;53.362;5.216;2023-03-23T15:09:44;39.53;;;7.43;;
54271;SDS011;40184;53.362;5.216;2023-03-23T15:12:24;36.55;;;8.30;;
54271;SDS011;40184;53.362;5.216;2023-03-23T15:14:56;36.05;;;7.60;;
54271;SDS011;40184;53.362;5.216;2023-03-23T15:17:41;42.67;;;8.90;;
54271;SDS011;40184;53.362;5.216;2023-03-23T15:22:50;35.15;;;9.88;;
54271;SDS011;40184;53.362;5.216;2023-03-23T15:27:56;37.78;;;8.98;;
54271;SDS011;40184;53.362;5.216;2023-03-23T15:30:29;39.53;;;7.35;;
54271;SDS011;40184;53.362;5.216;2023-03-23T15:35:32;43.03;;;9.38;;
54271;SDS011;40184;53.362;5.216;2023-03-23T15:38:04;45.10;;;8.80;;
54271;SDS011;40184;53.362;5.216;2023-03-23T15:40:35;44.33;;;8.77;;
54271;SDS011;40184;53.362;5.216;2023-03-23T15:43:17;50.75;;;10.52;;
54271;SDS011;40184;53.362;5.216;2023-03-23T15:45:58;46.63;;;9.43;;
54271;SDS011;40184;53.362;5.216;2023-03-23T15:48:44;44.08;;;9.13;;
54271;SDS011;40184;53.362;5.216;2023-03-23T15:51:15;44.25;;;10.45;;
54271;SDS011;40184;53.362;5.216;2023-03-23T15:53:43;41.15;;;8.98;;
54271;SDS011;40184;53.362;5.216;2023-03-23T15:56:09;43.65;;;9.43;;
54271;SDS011;40184;53.362;5.216;2023-03-23T15:58:37;36.70;;;9.10;;
54271;SDS011;40184;53.362;5.216;2023-03-23T16:01:09;42.35;;;9.23;;
54271;SDS011;40184;53.362;5.216;2023-03-23T16:03:52;45.47;;;8.95;;
54271;SDS011;40184;53.362;5.216;2023-03-23T16:06:19;50.17;;;9.45;;
54271;SDS011;40184;53.362;5.216;2023-03-23T16:08:45;42.67;;;9.77;;
54271;SDS011;40184;53.362;5.216;2023-03-23T16:11:16;32.83;;;8.25;;
54271;SDS011;40184;53.362;5.216;2023-03-23T16:13:43;40.72;;;9.20;;
54271;SDS011;40184;53.362;5.216;2023-03-23T16:16:13;44.90;;;9.93;;
54271;SDS011;40184;53.362;5.216;2023-03-23T16:18:45;42.17;;;10.23;;
54271;SDS011;40184;53.362;5.216;2023-03-23T16:21:10;48.22;;;9.38;;
54271;SDS011;40184;53.362;5.216;2023-03-23T16:23:36;44.72;;;9.75;;
54271;SDS011;40184;53.362;5.216;2023-03-23T16:26:02;55.47;;;9.63;;
54271;SDS011;40184;53.362;5.216;2023-03-23T16:28:28;44.33;;;9.55;;
54271;SDS011;40184;53.362;5.216;2023-03-23T16:30:54;47.28;;;10.32;;
54271;SDS011;40184;53.362;5.216;2023-03-23T16:33:20;32.63;;;8.68;;
54271;SDS011;40184;53.362;5.216;2023-03-23T16:35:46;44.50;;;10.75;;
54271;SDS011;40184;53.362;5.216;2023-03-23T16:38:12;45.90;;;8.75;;
54271;SDS011;40184;53.362;5.216;2023-03-23T16:40:41;48.33;;;10.10;;
54271;SDS011;40184;53.362;5.216;2023-03-23T16:43:08;53.10;;;10.90;;